createdAt,value
2019-04-05T00:01:24.426Z,94.37
2019-04-05T00:06:23.786Z,94.22
2019-04-05T00:11:23.805Z,94.11
2019-04-05T00:21:22.759Z,94.25
2019-04-05T00:26:21.965Z,94.08
2019-04-05T00:31:20.766Z,94.18
2019-04-05T00:36:21.848Z,94.27
2019-04-05T00:41:21.813Z,94.48
2019-04-05T00:46:21.792Z,94.23
2019-04-05T00:51:20.791Z,94.49
2019-04-05T00:56:20.843Z,94.36
2019-04-05T01:01:20.812Z,94.06
2019-04-05T01:06:19.855Z,94.04
2019-04-05T01:11:19.781Z,94.18
2019-04-05T01:16:18.832Z,94.22
2019-04-05T01:21:18.813Z,94.41
2019-04-05T01:26:18.836Z,94.34
2019-04-05T01:36:16.847Z,94.65
2019-04-05T01:41:16.807Z,94.82
2019-04-05T01:46:17.842Z,94.67
2019-04-05T01:56:17.893Z,94.53
2019-04-05T02:01:16.884Z,94.42
2019-04-05T02:06:16.793Z,94.61
2019-04-05T02:11:16.816Z,94.72
2019-04-05T02:16:16.087Z,94.83
2019-04-05T02:21:15.878Z,94.66
2019-04-05T02:26:16.981Z,94.97
2019-04-05T02:31:16.278Z,95.12
2019-04-05T02:36:15.873Z,94.98
2019-04-05T02:41:15.884Z,94.89
2019-04-05T02:46:23.386Z,95.03
2019-04-05T02:51:15.869Z,95.13
2019-04-05T02:56:14.881Z,95.10
2019-04-05T03:01:14.813Z,95.08
2019-04-05T03:06:14.838Z,95.16
2019-04-05T03:11:14.868Z,95.08
2019-04-05T03:16:14.990Z,95.15
2019-04-05T03:21:15.074Z,95.10
2019-04-05T03:26:14.895Z,95.08
2019-04-05T03:31:13.844Z,94.92
2019-04-05T03:36:14.147Z,95.10
2019-04-05T03:41:13.840Z,95.06
2019-04-05T03:46:13.916Z,95.19
2019-04-05T03:51:13.856Z,95.18
2019-04-05T03:56:13.852Z,95.30
2019-04-05T04:01:13.869Z,95.32
2019-04-05T04:06:14.964Z,95.24
2019-04-05T04:11:15.057Z,95.21
2019-04-05T04:16:13.850Z,95.19
2019-04-05T04:21:13.948Z,95.25
2019-04-05T04:26:13.879Z,95.20
2019-04-05T04:31:13.913Z,95.32
2019-04-05T04:36:13.305Z,95.43
2019-04-05T04:41:11.967Z,95.29
2019-04-05T04:46:11.870Z,95.30
2019-04-05T04:51:11.909Z,95.63
2019-04-05T04:56:12.125Z,95.58
2019-04-05T05:01:10.882Z,95.63
2019-04-05T05:11:14.872Z,95.55
2019-04-05T05:16:10.978Z,95.53
2019-04-05T05:21:10.889Z,95.53
2019-04-05T05:26:10.286Z,95.57
2019-04-05T05:31:10.952Z,95.74
2019-04-05T05:36:11.097Z,95.79
2019-04-05T05:41:10.900Z,95.79
2019-04-05T05:46:10.923Z,95.82
2019-04-05T05:51:09.890Z,95.93
2019-04-05T05:56:08.909Z,95.69
2019-04-05T06:01:07.917Z,95.53
2019-04-05T06:06:07.215Z,95.58
2019-04-05T06:11:06.202Z,95.46
2019-04-05T06:16:06.105Z,95.32
2019-04-05T06:21:04.950Z,94.78
2019-04-05T06:26:04.123Z,94.92
2019-04-05T06:31:03.927Z,94.80
2019-04-05T06:36:05.175Z,94.30
2019-04-05T06:41:05.175Z,94.30
2019-04-05T06:46:04.184Z,94.07
2019-04-05T06:51:03.994Z,94.21
2019-04-05T06:56:03.348Z,93.65
2019-04-05T07:01:02.990Z,93.55
2019-04-05T07:06:02.905Z,92.97
2019-04-05T07:11:02.143Z,92.44
2019-04-05T07:16:01.898Z,91.82
2019-04-05T07:21:01.022Z,91.50
2019-04-05T07:26:00.063Z,91.24
2019-04-05T07:30:59.227Z,90.57
2019-04-05T07:35:57.960Z,91.07
2019-04-05T07:40:57.959Z,90.82
2019-04-05T07:45:57.134Z,88.36
2019-04-05T07:50:56.140Z,87.74
2019-04-05T07:55:55.935Z,87.78
2019-04-05T08:00:57.099Z,86.45
2019-04-05T08:05:57.242Z,86.65
2019-04-05T08:10:57.075Z,86.49
2019-04-05T08:15:56.509Z,85.61
2019-04-05T08:20:56.977Z,84.34
2019-04-05T08:25:57.240Z,84.03
2019-04-05T08:30:56.060Z,83.28
2019-04-05T08:35:56.028Z,83.09
2019-04-05T08:40:55.368Z,83.20
2019-04-05T08:45:54.509Z,83.79
2019-04-05T08:50:53.383Z,84.97
2019-04-05T09:00:52.212Z,82.87
2019-04-05T09:05:51.376Z,83.18
2019-04-05T09:10:49.995Z,82.44
2019-04-05T09:15:49.136Z,82.33
2019-04-05T09:20:49.055Z,81.46
2019-04-05T09:25:49.006Z,80.94
2019-04-05T09:30:51.768Z,78.70
2019-04-05T09:35:50.110Z,82.08
2019-04-05T09:40:49.314Z,80.06
2019-04-05T09:45:49.036Z,80.90
2019-04-05T09:50:49.049Z,80.60
2019-04-05T09:55:49.131Z,80.72
2019-04-05T10:00:49.062Z,79.70
2019-04-05T10:05:49.348Z,80.13
2019-04-05T10:10:49.373Z,78.51
2019-04-05T10:15:48.030Z,77.03
2019-04-05T10:20:48.130Z,77.25
2019-04-05T10:25:49.032Z,78.24
2019-04-05T10:30:48.417Z,78.43
2019-04-05T10:35:48.462Z,78.40
2019-04-05T10:40:47.256Z,79.21
2019-04-05T10:45:47.032Z,77.83
2019-04-05T10:50:46.002Z,79.05
2019-04-05T10:55:46.066Z,78.77
2019-04-05T11:00:45.161Z,80.92
2019-04-05T11:05:48.962Z,77.49
2019-04-05T11:10:45.436Z,79.49
2019-04-05T11:15:45.125Z,79.91
2019-04-05T11:20:45.090Z,79.48
2019-04-05T11:25:44.525Z,77.77
2019-04-05T11:30:43.406Z,77.16
2019-04-05T11:35:44.235Z,77.61
2019-04-05T11:40:41.510Z,77.44
2019-04-05T11:45:41.074Z,77.45
2019-04-05T11:50:40.425Z,78.97
2019-04-05T11:55:40.026Z,79.54
2019-04-05T12:00:40.116Z,78.72
2019-04-05T12:05:39.175Z,78.20
2019-04-05T12:10:38.112Z,79.78
2019-04-05T12:15:39.018Z,79.30
2019-04-05T12:20:48.329Z,78.50
2019-04-05T12:25:38.058Z,78.29
2019-04-05T12:30:38.051Z,79.94
2019-04-05T12:35:39.006Z,80.19
2019-04-05T12:40:40.763Z,77.75
2019-04-05T12:45:38.220Z,77.62
2019-04-05T12:50:38.055Z,79.17
2019-04-05T12:55:37.262Z,79.15
2019-04-05T13:00:38.826Z,78.14
2019-04-05T13:05:35.339Z,78.46
2019-04-05T13:10:34.374Z,79.96
2019-04-05T13:15:35.034Z,79.39
2019-04-05T13:20:34.381Z,79.25
2019-04-05T13:25:33.087Z,79.77
2019-04-05T13:30:33.203Z,80.22
2019-04-05T13:35:32.192Z,80.25
2019-04-05T13:40:33.290Z,81.35
2019-04-05T13:45:33.190Z,81.08
2019-04-05T13:50:32.112Z,82.18
2019-04-05T13:55:33.268Z,81.57
2019-04-05T14:00:32.333Z,81.40
2019-04-05T14:05:32.073Z,81.59
2019-04-05T14:10:33.148Z,81.33
2019-04-05T14:15:32.083Z,81.52
2019-04-05T14:20:31.320Z,82.22
2019-04-05T14:25:31.031Z,81.53
2019-04-05T14:30:32.971Z,82.27
2019-04-05T14:35:31.105Z,83.29
2019-04-05T14:40:32.951Z,82.54
2019-04-05T14:45:29.299Z,83.73
2019-04-05T14:50:28.849Z,82.72
2019-04-05T14:55:29.809Z,83.90
2019-04-05T15:00:29.040Z,82.59
2019-04-05T15:05:28.117Z,83.34
2019-04-05T15:10:29.063Z,83.53
2019-04-05T15:15:29.089Z,84.21
2019-04-05T15:20:28.312Z,84.41
2019-04-05T15:25:28.092Z,83.96
2019-04-05T15:30:27.441Z,84.30
2019-04-05T15:35:28.704Z,84.13
2019-04-05T15:40:28.742Z,84.28
2019-04-05T15:45:26.068Z,83.76
2019-04-05T15:50:26.124Z,84.49
2019-04-05T15:55:26.045Z,84.97
2019-04-05T16:00:26.066Z,84.86
2019-04-05T16:05:25.054Z,84.52
2019-04-05T16:10:24.171Z,84.44
2019-04-05T16:15:23.499Z,84.56
2019-04-05T16:20:23.233Z,85.09
2019-04-05T16:25:23.082Z,84.92
2019-04-05T16:30:22.158Z,85.07
2019-04-05T16:35:22.086Z,85.27
2019-04-05T16:40:22.126Z,85.70
2019-04-05T16:45:21.132Z,85.91
2019-04-05T16:50:22.115Z,86.27
2019-04-05T16:55:21.272Z,86.06
2019-04-05T17:00:22.102Z,86.37
2019-04-05T17:05:22.121Z,86.51
2019-04-05T17:10:21.531Z,87.57
2019-04-05T17:15:20.224Z,87.02
2019-04-05T17:25:18.436Z,87.70
2019-04-05T17:30:19.150Z,87.82
2019-04-05T17:35:19.944Z,88.04
2019-04-05T17:40:18.512Z,88.75
2019-04-05T17:50:17.166Z,90.02
2019-04-05T17:55:17.138Z,90.27
2019-04-05T18:00:17.307Z,90.72
2019-04-05T18:05:18.111Z,90.99
2019-04-05T18:10:18.215Z,91.02
2019-04-05T18:15:18.174Z,91.15
2019-04-05T18:20:19.135Z,91.29
2019-04-05T18:25:20.138Z,91.27
2019-04-05T18:30:20.171Z,91.07
2019-04-05T18:35:20.458Z,91.11
2019-04-05T18:45:19.090Z,91.07
2019-04-05T18:50:19.092Z,91.17
2019-04-05T18:55:19.123Z,91.04
2019-04-05T19:00:18.281Z,91.40
2019-04-05T19:05:18.191Z,91.05
2019-04-05T19:10:18.105Z,91.03
2019-04-05T19:15:17.092Z,90.79
2019-04-05T19:20:17.135Z,91.09
2019-04-05T19:25:17.146Z,91.03
2019-04-05T19:50:15.209Z,91.03
2019-04-05T19:55:15.121Z,90.82
2019-04-05T20:00:14.131Z,90.91
2019-04-05T20:05:14.105Z,90.97
2019-04-05T20:10:13.184Z,90.89
2019-04-05T20:15:12.135Z,91.20
2019-04-05T20:20:12.755Z,90.81
2019-04-05T20:25:12.427Z,91.17
2019-04-05T20:30:12.207Z,90.53
2019-04-05T20:35:12.192Z,90.38
2019-04-05T20:40:13.398Z,90.44
2019-04-05T20:45:13.119Z,90.06
2019-04-05T20:50:12.433Z,90.39
2019-04-05T20:55:12.121Z,90.34
2019-04-05T21:00:12.280Z,90.48
2019-04-05T21:05:13.186Z,90.24
2019-04-05T21:10:13.324Z,90.46
2019-04-05T21:15:13.102Z,90.55
2019-04-05T21:20:13.294Z,90.29
2019-04-05T21:25:14.156Z,90.68
2019-04-05T21:30:13.177Z,90.07
2019-04-05T21:35:13.162Z,90.30
2019-04-05T21:40:12.477Z,89.78
2019-04-05T21:45:13.182Z,90.13
2019-04-05T21:50:13.101Z,90.37
2019-04-05T21:55:12.193Z,90.63
2019-04-05T22:00:12.265Z,90.48
2019-04-05T22:05:11.405Z,90.41
2019-04-05T22:10:11.123Z,91.05
2019-04-05T22:15:10.417Z,91.32
2019-04-05T22:25:10.499Z,90.74
2019-04-05T22:30:11.192Z,90.74
2019-04-05T22:35:11.119Z,90.63
2019-04-05T22:40:10.808Z,90.57
2019-04-05T22:45:10.147Z,90.73
2019-04-05T22:50:09.338Z,91.04
2019-04-05T22:55:11.380Z,90.53
2019-04-05T23:00:09.142Z,90.35
2019-04-05T23:05:09.166Z,90.32
2019-04-05T23:10:09.214Z,90.42
2019-04-05T23:15:08.147Z,90.49
2019-04-05T23:20:08.181Z,90.61
2019-04-05T23:25:08.195Z,90.75
2019-04-05T23:30:08.120Z,90.73
2019-04-05T23:35:08.194Z,90.75
2019-04-05T23:40:07.185Z,90.82
2019-04-05T23:45:07.332Z,90.71
2019-04-05T23:50:08.134Z,91.33
2019-04-05T23:55:08.195Z,90.75
